createdAt,value
2018-12-01T00:02:14.063Z,25.03
2018-12-01T00:04:42.048Z,31.03
2018-12-01T00:07:10.033Z,30.13
2018-12-01T00:09:38.048Z,26.67
2018-12-01T00:12:06.153Z,35.73
2018-12-01T00:14:34.166Z,22.70
2018-12-01T00:17:02.130Z,19.33
2018-12-01T00:19:30.107Z,19.70
2018-12-01T00:21:58.107Z,14.13
2018-12-01T00:24:26.130Z,17.20
2018-12-01T00:26:54.140Z,27.33
2018-12-01T00:29:22.155Z,32.80
2018-12-01T00:31:50.190Z,19.13
2018-12-01T00:34:18.153Z,16.80
2018-12-01T00:36:46.117Z,12.37
2018-12-01T00:39:14.186Z,9.93
2018-12-01T00:41:42.163Z,10.13
2018-12-01T00:44:10.153Z,12.83
2018-12-01T00:46:38.149Z,13.17
2018-12-01T00:49:06.112Z,12.23
2018-12-01T00:51:34.104Z,9.70
2018-12-01T00:54:02.208Z,12.60
2018-12-01T00:56:30.196Z,11.60
2018-12-01T00:58:58.176Z,9.93
2018-12-01T01:01:26.164Z,10.10
2018-12-01T01:03:54.161Z,9.83
2018-12-01T01:06:22.182Z,10.80
2018-12-01T01:08:50.160Z,9.47
2018-12-01T01:11:18.163Z,12.93
2018-12-01T01:13:46.122Z,9.27
2018-12-01T01:16:14.109Z,11.23
2018-12-01T01:18:42.100Z,8.80
2018-12-01T01:21:10.072Z,9.93
2018-12-01T01:23:38.060Z,12.30
2018-12-01T01:26:06.052Z,10.97
2018-12-01T01:28:34.030Z,12.33
2018-12-01T01:31:02.063Z,11.10
2018-12-01T01:33:30.449Z,11.30
2018-12-01T01:35:58.429Z,12.10
2018-12-01T01:38:26.518Z,11.17
2018-12-01T01:41:00.014Z,8.73
2018-12-01T01:43:28.033Z,10.90
2018-12-01T01:45:56.053Z,11.50
2018-12-01T01:48:23.999Z,10.20
2018-12-01T01:50:51.977Z,12.50
2018-12-01T01:53:20.038Z,10.43
2018-12-01T01:55:48.012Z,11.77
2018-12-01T01:58:16.033Z,12.33
2018-12-01T02:00:44.038Z,11.67
2018-12-01T02:03:12.046Z,12.13
2018-12-01T02:05:40.074Z,11.00
2018-12-01T02:08:08.058Z,10.93
2018-12-01T02:10:36.031Z,10.23
2018-12-01T02:13:04.174Z,10.47
2018-12-01T02:15:32.176Z,12.30
2018-12-01T02:18:00.185Z,11.23
2018-12-01T02:20:28.213Z,10.47
2018-12-01T02:22:56.254Z,9.47
2018-12-01T02:25:24.257Z,10.33
2018-12-01T02:27:52.612Z,12.43
2018-12-01T02:30:20.991Z,9.83
2018-12-01T02:32:49.274Z,11.57
2018-12-01T02:35:18.618Z,11.63
2018-12-01T02:37:46.597Z,11.57
2018-12-01T02:40:14.659Z,10.73
2018-12-01T02:42:43.081Z,12.87
2018-12-01T02:45:22.368Z,13.10
2018-12-01T02:47:50.399Z,11.40
2018-12-01T02:50:24.913Z,14.53
2018-12-01T02:52:53.759Z,12.93
2018-12-01T02:55:21.765Z,13.47
2018-12-01T02:57:49.875Z,12.83
2018-12-01T03:00:17.906Z,11.27
2018-12-01T03:02:45.882Z,11.83
2018-12-01T03:05:13.896Z,13.10
2018-12-01T03:07:41.920Z,13.23
2018-12-01T03:10:13.834Z,11.67
2018-12-01T03:12:41.825Z,11.17
2018-12-01T03:15:12.544Z,12.37
2018-12-01T03:17:40.633Z,11.70
2018-12-01T03:20:11.655Z,11.60
2018-12-01T03:22:39.689Z,11.37
2018-12-01T03:25:10.047Z,11.80
2018-12-01T03:27:38.385Z,10.40
2018-12-01T03:30:10.668Z,12.37
2018-12-01T03:32:38.713Z,13.20
2018-12-01T03:35:12.425Z,12.03
2018-12-01T03:37:43.108Z,12.63
2018-12-01T03:40:11.892Z,17.17
2018-12-01T03:42:39.920Z,15.67
2018-12-01T03:45:10.432Z,14.77
2018-12-01T03:47:38.473Z,15.27
2018-12-01T03:50:07.841Z,12.87
2018-12-01T03:52:35.840Z,12.77
2018-12-01T03:55:04.209Z,14.43
2018-12-01T03:57:32.176Z,13.63
2018-12-01T04:00:00.178Z,11.13
2018-12-01T04:02:28.150Z,12.93
2018-12-01T04:04:56.149Z,14.17
2018-12-01T04:07:24.144Z,15.13
2018-12-01T04:09:52.136Z,10.10
2018-12-01T04:12:20.148Z,13.90
2018-12-01T04:14:48.160Z,15.53
2018-12-01T04:17:16.132Z,16.97
2018-12-01T04:19:44.106Z,15.63
2018-12-01T04:22:12.118Z,17.00
2018-12-01T04:24:40.060Z,19.23
2018-12-01T04:27:08.024Z,18.40
2018-12-01T04:29:36.068Z,16.83
2018-12-01T04:32:04.080Z,13.97
2018-12-01T04:34:32.094Z,17.97
2018-12-01T04:37:00.080Z,23.77
2018-12-01T04:39:28.096Z,14.10
2018-12-01T04:41:56.064Z,17.10
2018-12-01T04:44:24.087Z,18.00
2018-12-01T04:46:52.068Z,16.70
2018-12-01T04:49:20.028Z,16.77
2018-12-01T04:51:48.053Z,17.13
2018-12-01T04:54:16.046Z,11.37
2018-12-01T04:56:44.010Z,15.93
2018-12-01T04:59:12.019Z,15.57
2018-12-01T05:01:40.034Z,15.67
2018-12-01T05:04:08.024Z,16.17
2018-12-01T05:06:36.084Z,20.63
2018-12-01T05:09:06.344Z,19.53
2018-12-01T05:11:34.372Z,19.07
2018-12-01T05:14:02.515Z,18.13
2018-12-01T05:16:30.508Z,18.07
2018-12-01T05:18:58.478Z,17.77
2018-12-01T05:21:26.536Z,28.40
2018-12-01T05:23:54.533Z,18.73
2018-12-01T05:26:22.510Z,18.90
2018-12-01T05:28:50.542Z,15.37
2018-12-01T05:31:18.536Z,18.67
2018-12-01T05:33:46.518Z,18.70
2018-12-01T05:36:14.543Z,19.73
2018-12-01T05:38:42.533Z,22.27
2018-12-01T05:41:10.512Z,23.67
2018-12-01T05:43:38.547Z,30.87
2018-12-01T05:46:06.548Z,26.50
2018-12-01T05:48:34.528Z,26.87
2018-12-01T05:51:02.535Z,27.77
2018-12-01T05:53:30.528Z,25.30
2018-12-01T05:55:58.514Z,22.37
2018-12-01T05:58:26.516Z,20.40
2018-12-01T06:00:54.506Z,18.70
2018-12-01T06:03:22.482Z,18.80
2018-12-01T06:05:50.496Z,21.17
2018-12-01T06:08:18.477Z,26.60
2018-12-01T06:10:46.590Z,25.70
2018-12-01T06:13:14.573Z,26.30
2018-12-01T06:15:42.588Z,16.93
2018-12-01T06:18:10.578Z,22.10
2018-12-01T06:20:38.624Z,14.83
2018-12-01T06:23:06.615Z,19.30
2018-12-01T06:25:34.621Z,20.63
2018-12-01T06:28:02.686Z,19.37
2018-12-01T06:30:30.670Z,13.30
2018-12-01T06:32:58.703Z,11.57
2018-12-01T06:35:26.721Z,19.77
2018-12-01T06:37:54.734Z,19.57
2018-12-01T06:40:22.755Z,20.93
2018-12-01T06:42:50.793Z,20.33
2018-12-01T06:45:18.974Z,26.63
2018-12-01T06:47:47.034Z,12.17
2018-12-01T06:50:17.424Z,21.77
2018-12-01T06:52:45.461Z,35.50
2018-12-01T06:55:14.023Z,32.93
2018-12-01T06:57:43.080Z,24.10
2018-12-01T07:00:12.532Z,27.70
2018-12-01T07:02:40.917Z,32.60
2018-12-01T07:05:10.279Z,34.13
2018-12-01T07:07:38.266Z,26.73
2018-12-01T07:10:09.866Z,37.47
2018-12-01T07:12:37.930Z,37.20
2018-12-01T07:15:08.318Z,25.40
2018-12-01T07:17:36.374Z,26.27
2018-12-01T07:20:05.159Z,25.30
2018-12-01T07:22:33.156Z,21.63
2018-12-01T07:25:01.182Z,28.97
2018-12-01T07:27:29.184Z,24.50
2018-12-01T07:29:58.197Z,12.87
2018-12-01T07:32:25.268Z,19.23
2018-12-01T07:34:53.253Z,18.47
2018-12-01T07:37:21.257Z,19.20
2018-12-01T07:39:49.275Z,14.70
2018-12-01T07:42:18.069Z,19.13
2018-12-01T07:44:47.042Z,16.27
2018-12-01T07:47:14.164Z,17.53
2018-12-01T07:49:42.178Z,19.47
2018-12-01T07:52:10.182Z,17.60
2018-12-01T07:54:38.196Z,19.07
2018-12-01T07:57:06.210Z,27.00
2018-12-01T07:59:34.194Z,22.20
2018-12-01T08:02:02.180Z,23.23
2018-12-01T08:04:30.140Z,22.77
2018-12-01T08:06:58.161Z,25.50
2018-12-01T08:09:26.165Z,18.07
2018-12-01T08:11:54.192Z,27.70
2018-12-01T08:14:22.211Z,27.17
2018-12-01T08:16:50.351Z,23.70
2018-12-01T08:19:18.351Z,28.13
2018-12-01T08:21:46.314Z,29.17
2018-12-01T08:24:14.351Z,23.30
2018-12-01T08:26:42.415Z,28.53
2018-12-01T08:29:10.428Z,32.00
2018-12-01T08:31:38.478Z,22.70
2018-12-01T08:34:06.487Z,21.70
2018-12-01T08:36:34.505Z,28.57
2018-12-01T08:39:02.653Z,26.23
2018-12-01T08:41:32.185Z,22.60
2018-12-01T08:44:00.185Z,25.87
2018-12-01T08:46:28.160Z,20.57
2018-12-01T08:48:56.161Z,24.73
2018-12-01T08:51:24.188Z,25.50
2018-12-01T08:53:52.217Z,26.87
2018-12-01T08:56:20.187Z,25.73
2018-12-01T08:58:48.173Z,24.63
2018-12-01T09:01:16.181Z,25.37
2018-12-01T09:03:44.156Z,25.37
2018-12-01T09:06:12.098Z,28.27
2018-12-01T09:08:40.105Z,23.30
2018-12-01T09:11:08.085Z,26.73
2018-12-01T09:13:36.099Z,26.47
2018-12-01T09:16:04.222Z,24.53
2018-12-01T09:18:32.256Z,25.93
2018-12-01T09:21:00.293Z,26.37
2018-12-01T09:23:28.319Z,28.70
2018-12-01T09:25:56.359Z,28.50
2018-12-01T09:28:24.398Z,29.73
2018-12-01T09:30:52.473Z,35.73
2018-12-01T09:33:20.601Z,28.60
2018-12-01T09:35:48.599Z,29.33
2018-12-01T09:38:16.617Z,27.37
2018-12-01T09:40:44.626Z,27.63
2018-12-01T09:43:12.679Z,26.90
2018-12-01T09:45:40.728Z,27.70
2018-12-01T09:48:08.859Z,30.53
2018-12-01T09:50:36.865Z,28.87
2018-12-01T09:53:05.337Z,29.03
2018-12-01T09:55:33.285Z,25.70
2018-12-01T09:58:01.269Z,29.50
2018-12-01T10:00:31.563Z,30.40
2018-12-01T10:03:03.587Z,26.57
2018-12-01T10:05:32.344Z,31.67
2018-12-01T10:08:00.389Z,30.60
2018-12-01T10:10:29.733Z,29.67
2018-12-01T10:12:58.066Z,30.43
2018-12-01T10:15:27.222Z,28.00
2018-12-01T10:17:55.445Z,25.33
2018-12-01T10:20:24.855Z,28.87
2018-12-01T10:22:52.882Z,26.87
2018-12-01T10:25:20.906Z,26.03
2018-12-01T10:27:48.928Z,28.97
2018-12-01T10:30:20.613Z,27.40
2018-12-01T10:32:49.453Z,29.00
2018-12-01T10:35:20.791Z,29.73
2018-12-01T10:37:54.460Z,28.57
2018-12-01T10:40:22.481Z,27.83
2018-12-01T10:42:50.491Z,26.63
2018-12-01T10:45:19.438Z,29.87
2018-12-01T10:47:47.550Z,28.80
2018-12-01T10:50:16.740Z,27.40
2018-12-01T10:52:45.742Z,26.13
2018-12-01T10:55:29.328Z,26.57
2018-12-01T10:58:01.583Z,25.23
2018-12-01T11:00:35.760Z,24.37
2018-12-01T11:03:04.022Z,29.70
2018-12-01T11:05:32.540Z,28.37
2018-12-01T11:08:00.661Z,29.50
2018-12-01T11:10:28.698Z,27.37
2018-12-01T11:12:56.715Z,28.20
2018-12-01T11:15:24.814Z,29.97
2018-12-01T11:17:52.926Z,30.10
2018-12-01T11:20:20.942Z,28.60
2018-12-01T11:22:48.960Z,32.33
2018-12-01T11:25:16.998Z,27.00
2018-12-01T11:27:45.057Z,26.97
2018-12-01T11:30:14.599Z,26.50
2018-12-01T11:32:42.648Z,25.07
2018-12-01T11:35:10.719Z,31.00
2018-12-01T11:37:38.829Z,27.43
2018-12-01T11:40:12.218Z,27.20
2018-12-01T11:42:40.334Z,26.37
2018-12-01T11:45:09.889Z,30.30
2018-12-01T11:47:37.982Z,26.97
2018-12-01T11:50:09.353Z,27.60
2018-12-01T11:52:37.347Z,29.47
2018-12-01T11:55:07.799Z,28.47
2018-12-01T11:57:35.838Z,28.17
2018-12-01T12:00:07.498Z,31.07
2018-12-01T12:02:35.558Z,30.47
2018-12-01T12:05:03.752Z,30.33
2018-12-01T12:07:42.976Z,28.10
2018-12-01T12:10:10.996Z,30.13
2018-12-01T12:12:39.050Z,32.30
2018-12-01T12:15:09.008Z,31.70
2018-12-01T12:17:37.258Z,33.43
2018-12-01T12:20:07.248Z,31.37
2018-12-01T12:22:35.338Z,31.47
2018-12-01T12:25:03.929Z,32.43
2018-12-01T12:27:31.974Z,29.17
2018-12-01T12:30:00.020Z,30.07
2018-12-01T12:32:28.226Z,32.53
2018-12-01T12:34:56.227Z,36.07
2018-12-01T12:37:24.267Z,39.53
2018-12-01T12:39:52.282Z,39.27
2018-12-01T12:42:20.474Z,36.73
2018-12-01T12:44:48.510Z,34.47
2018-12-01T12:47:16.489Z,34.23
2018-12-01T12:49:44.498Z,41.27
2018-12-01T12:52:12.526Z,35.87
2018-12-01T12:54:40.624Z,31.50
2018-12-01T12:57:08.699Z,36.10
2018-12-01T12:59:36.702Z,37.80
2018-12-01T13:02:05.334Z,40.97
2018-12-01T13:04:33.344Z,36.30
2018-12-01T13:07:01.332Z,41.67
2018-12-01T13:09:29.372Z,42.13
2018-12-01T13:11:57.529Z,38.93
2018-12-01T13:14:25.740Z,40.13
2018-12-01T13:16:53.934Z,35.53
2018-12-01T13:19:22.110Z,34.60
2018-12-01T13:21:50.367Z,35.40
2018-12-01T13:24:18.555Z,36.80
2018-12-01T13:26:46.877Z,38.67
2018-12-01T13:29:15.129Z,34.63
2018-12-01T13:31:43.409Z,41.17
2018-12-01T13:34:11.727Z,45.50
2018-12-01T13:36:40.093Z,47.00
2018-12-01T13:39:09.644Z,47.53
2018-12-01T13:41:37.872Z,48.03
2018-12-01T13:44:06.174Z,54.70
2018-12-01T13:46:34.432Z,52.73
2018-12-01T13:49:02.688Z,52.17
2018-12-01T13:51:30.991Z,52.37
2018-12-01T13:53:59.244Z,56.90
2018-12-01T13:56:27.448Z,55.50
2018-12-01T13:58:55.791Z,52.63
2018-12-01T14:01:24.033Z,54.10
2018-12-01T14:03:52.488Z,58.30
2018-12-01T14:06:20.780Z,61.03
2018-12-01T14:08:48.978Z,63.50
2018-12-01T14:11:17.279Z,59.63
2018-12-01T14:13:45.542Z,56.23
2018-12-01T14:16:13.773Z,61.80
2018-12-01T14:18:42.069Z,63.20
2018-12-01T14:21:10.307Z,58.80
2018-12-01T14:23:38.639Z,61.63
2018-12-01T14:26:06.915Z,60.73
2018-12-01T14:28:35.151Z,58.13
2018-12-01T14:31:03.433Z,56.93
2018-12-01T14:33:31.696Z,57.80
2018-12-01T14:35:59.929Z,64.93
2018-12-01T14:38:28.125Z,61.20
2018-12-01T14:40:56.301Z,58.00
2018-12-01T14:43:24.878Z,63.63
2018-12-01T14:45:53.053Z,64.30
2018-12-01T14:48:21.222Z,67.77
2018-12-01T14:50:49.293Z,71.83
2018-12-01T14:53:18.245Z,69.70
2018-12-01T14:55:46.241Z,72.70
2018-12-01T14:58:14.268Z,79.20
2018-12-01T15:00:42.289Z,65.97
2018-12-01T15:03:10.371Z,64.37
2018-12-01T15:05:39.625Z,71.80
2018-12-01T15:08:07.823Z,67.30
2018-12-01T15:10:36.126Z,58.97
2018-12-01T15:13:04.255Z,61.67
2018-12-01T15:15:32.327Z,61.80
2018-12-01T15:18:00.413Z,58.83
2018-12-01T15:20:28.565Z,61.87
2018-12-01T15:22:58.496Z,62.37
2018-12-01T15:25:31.954Z,69.83
2018-12-01T15:28:00.860Z,73.83
2018-12-01T15:30:29.852Z,78.30
2018-12-01T15:33:01.133Z,75.73
2018-12-01T15:35:29.241Z,76.60
2018-12-01T15:37:57.981Z,73.50
2018-12-01T15:40:26.072Z,75.53
2018-12-01T15:42:54.169Z,73.07
2018-12-01T15:45:22.824Z,84.93
2018-12-01T15:47:51.000Z,82.17
2018-12-01T15:50:20.221Z,80.83
2018-12-01T15:52:51.194Z,85.53
2018-12-01T15:55:19.516Z,87.47
2018-12-01T15:57:47.630Z,101.87
2018-12-01T16:00:18.671Z,103.80
2018-12-01T16:02:46.799Z,107.20
2018-12-01T16:05:15.903Z,97.63
2018-12-01T16:07:44.140Z,93.67
2018-12-01T16:10:14.256Z,88.87
2018-12-01T16:12:42.682Z,98.57
2018-12-01T16:15:21.416Z,93.87
2018-12-01T16:17:49.600Z,88.50
2018-12-01T16:20:17.645Z,102.27
2018-12-01T16:22:45.839Z,83.77
2018-12-01T16:25:15.964Z,92.63
2018-12-01T16:27:44.969Z,74.23
2018-12-01T16:30:45.158Z,71.30
2018-12-01T16:33:18.715Z,66.90
2018-12-01T16:35:45.548Z,73.03
2018-12-01T16:38:16.348Z,71.33
2018-12-01T16:40:46.312Z,64.53
2018-12-01T16:43:14.906Z,99.77
2018-12-01T16:45:44.057Z,99.27
2018-12-01T16:48:12.152Z,95.47
2018-12-01T16:50:40.786Z,110.83
2018-12-01T16:53:10.480Z,107.27
2018-12-01T16:55:38.755Z,108.90
2018-12-01T16:58:06.764Z,104.53
2018-12-01T17:00:34.801Z,94.07
2018-12-01T17:03:02.821Z,94.93
2018-12-01T17:05:32.227Z,93.80
2018-12-01T17:08:02.124Z,86.30
2018-12-01T17:10:30.082Z,80.87
2018-12-01T17:12:58.442Z,86.13
2018-12-01T17:15:26.256Z,109.27
2018-12-01T17:17:54.347Z,125.33
2018-12-01T17:20:22.376Z,147.53
2018-12-01T17:22:53.500Z,149.30
2018-12-01T17:25:21.597Z,148.77
2018-12-01T17:27:50.492Z,144.43
2018-12-01T17:30:22.485Z,141.53
2018-12-01T17:32:51.110Z,135.97
2018-12-01T17:35:20.508Z,132.00
2018-12-01T17:37:49.890Z,128.27
2018-12-01T17:40:22.828Z,123.73
2018-12-01T17:42:53.037Z,125.60
2018-12-01T17:45:21.109Z,127.13
2018-12-01T17:47:49.787Z,124.77
2018-12-01T17:50:17.976Z,195.73
2018-12-01T17:52:48.663Z,223.90
2018-12-01T17:55:16.948Z,218.73
2018-12-01T17:57:45.549Z,208.00
2018-12-01T18:00:16.098Z,186.20
2018-12-01T18:02:43.981Z,188.27
2018-12-01T18:05:13.673Z,184.47
2018-12-01T18:07:42.516Z,165.17
2018-12-01T18:10:12.703Z,140.17
2018-12-01T18:12:41.284Z,155.83
2018-12-01T18:15:13.397Z,154.17
2018-12-01T18:17:41.608Z,107.20
2018-12-01T18:20:20.020Z,80.90
2018-12-01T18:23:05.319Z,75.80
2018-12-01T18:25:39.108Z,67.67
2018-12-01T18:28:08.159Z,75.30
2018-12-01T18:30:37.348Z,64.93
2018-12-01T18:33:07.774Z,81.13
2018-12-01T18:35:35.779Z,103.87
2018-12-01T18:38:03.849Z,94.87
2018-12-01T18:40:33.868Z,92.83
2018-12-01T18:43:01.890Z,96.40
2018-12-01T18:45:29.934Z,95.07
2018-12-01T18:47:58.273Z,98.57
2018-12-01T18:50:26.323Z,105.20
2018-12-01T18:52:58.306Z,103.37
2018-12-01T18:55:27.562Z,109.10
2018-12-01T18:57:55.679Z,120.67
2018-12-01T19:00:26.264Z,128.33
2018-12-01T19:02:54.260Z,132.27
2018-12-01T19:05:22.332Z,129.67
2018-12-01T19:07:51.067Z,137.57
2018-12-01T19:10:19.372Z,150.00
2018-12-01T19:12:47.496Z,152.07
2018-12-01T19:15:16.737Z,132.90
2018-12-01T19:17:45.998Z,124.93
2018-12-01T19:20:15.794Z,133.07
2018-12-01T19:22:44.236Z,138.63
2018-12-01T19:25:14.912Z,139.27
2018-12-01T19:27:43.116Z,132.67
2018-12-01T19:30:13.125Z,107.50
2018-12-01T19:32:41.977Z,119.30
2018-12-01T19:35:12.424Z,116.63
2018-12-01T19:37:40.640Z,112.27
2018-12-01T19:40:14.222Z,107.37
2018-12-01T19:42:42.344Z,109.87
2018-12-01T19:45:10.675Z,99.53
2018-12-01T19:47:38.732Z,101.93
2018-12-01T19:50:15.444Z,114.63
2018-12-01T19:52:43.490Z,103.00
2018-12-01T19:55:12.562Z,107.50
2018-12-01T19:57:41.164Z,101.20
2018-12-01T20:00:13.570Z,103.43
2018-12-01T20:02:41.708Z,101.00
2018-12-01T20:05:12.702Z,98.63
2018-12-01T20:07:40.942Z,100.67
2018-12-01T20:10:11.898Z,105.57
2018-12-01T20:12:40.004Z,100.33
2018-12-01T20:15:16.290Z,103.20
2018-12-01T20:17:44.328Z,107.23
2018-12-01T20:20:12.344Z,108.27
2018-12-01T20:22:40.492Z,113.00
2018-12-01T20:25:10.606Z,116.10
2018-12-01T20:27:38.632Z,106.90
2018-12-01T20:30:13.808Z,106.47
2018-12-01T20:32:41.851Z,101.17
2018-12-01T20:35:11.215Z,105.10
2018-12-01T20:37:40.142Z,103.70
2018-12-01T20:40:11.578Z,100.67
2018-12-01T20:42:39.654Z,102.03
2018-12-01T20:45:09.796Z,98.77
2018-12-01T20:47:37.838Z,100.53
2018-12-01T20:50:13.508Z,100.57
2018-12-01T20:52:41.821Z,96.97
2018-12-01T20:55:12.093Z,102.30
2018-12-01T20:57:40.380Z,104.83
2018-12-01T21:00:10.899Z,106.97
2018-12-01T21:02:39.868Z,103.07
2018-12-01T21:05:10.943Z,103.33
2018-12-01T21:07:38.941Z,97.57
2018-12-01T21:10:10.776Z,95.50
2018-12-01T21:12:38.744Z,101.33
2018-12-01T21:15:10.064Z,94.73
2018-12-01T21:17:38.754Z,97.50
2018-12-01T21:20:13.051Z,98.27
2018-12-01T21:22:42.312Z,98.70
2018-12-01T21:25:12.691Z,102.73
2018-12-01T21:27:40.732Z,97.13
2018-12-01T21:30:15.201Z,99.20
2018-12-01T21:32:43.455Z,99.57
2018-12-01T21:35:12.662Z,96.60
2018-12-01T21:37:40.874Z,98.97
2018-12-01T21:40:13.607Z,86.50
2018-12-01T21:42:41.663Z,83.93
2018-12-01T21:45:10.893Z,91.90
2018-12-01T21:47:38.936Z,97.27
2018-12-01T21:50:09.816Z,93.60
2018-12-01T21:52:37.830Z,87.30
2018-12-01T21:55:08.667Z,90.27
2018-12-01T21:57:36.728Z,94.13
2018-12-01T22:00:12.066Z,93.23
2018-12-01T22:02:40.187Z,91.40
2018-12-01T22:05:11.418Z,93.00
2018-12-01T22:07:39.417Z,95.30
2018-12-01T22:10:12.209Z,87.90
2018-12-01T22:12:40.171Z,90.50
2018-12-01T22:15:13.067Z,89.63
2018-12-01T22:17:41.121Z,85.77
2018-12-01T22:20:13.651Z,89.63
2018-12-01T22:22:41.675Z,88.00
2018-12-01T22:25:10.435Z,89.80
2018-12-01T22:27:38.635Z,85.83
2018-12-01T22:30:10.840Z,87.87
2018-12-01T22:32:38.879Z,86.87
2018-12-01T22:35:10.668Z,89.03
2018-12-01T22:37:38.716Z,94.03
2018-12-01T22:40:23.369Z,91.67
2018-12-01T22:42:52.934Z,92.83
2018-12-01T22:45:20.955Z,91.13
2018-12-01T22:47:49.075Z,93.00
2018-12-01T22:50:19.277Z,94.27
2018-12-01T22:52:47.665Z,90.70
2018-12-01T22:55:17.889Z,89.97
2018-12-01T22:57:48.798Z,88.53
2018-12-01T23:00:20.635Z,95.63
2018-12-01T23:02:48.796Z,88.07
2018-12-01T23:05:17.117Z,82.83
2018-12-01T23:07:44.981Z,94.37
2018-12-01T23:10:14.220Z,95.80
2018-12-01T23:12:42.899Z,97.63
2018-12-01T23:15:16.204Z,92.23
2018-12-01T23:17:46.401Z,93.03
2018-12-01T23:20:17.686Z,84.60
2018-12-01T23:22:45.871Z,93.57
2018-12-01T23:25:13.887Z,88.63
2018-12-01T23:27:41.959Z,90.47
2018-12-01T23:30:16.971Z,88.73
2018-12-01T23:32:46.219Z,89.93
2018-12-01T23:35:14.267Z,86.03
2018-12-01T23:37:42.268Z,90.87
2018-12-01T23:40:11.718Z,92.10
2018-12-01T23:42:39.923Z,86.17
2018-12-01T23:45:13.053Z,89.07
2018-12-01T23:47:41.103Z,87.70
2018-12-01T23:50:19.905Z,81.27
2018-12-01T23:52:49.701Z,86.40
2018-12-01T23:55:17.715Z,82.60
2018-12-01T23:57:45.735Z,79.23
